createdAt,value
2023-01-17T00:00:31.352Z,9.98
2023-01-17T00:06:15.485Z,9.98
2023-01-17T00:11:59.197Z,9.97
2023-01-17T00:17:41.849Z,9.97
2023-01-17T00:23:25.219Z,10.06
2023-01-17T00:29:15.445Z,9.98
2023-01-17T00:35:00.952Z,9.99
2023-01-17T00:40:44.507Z,9.99
2023-01-17T00:46:27.419Z,9.95
2023-01-17T00:52:10.382Z,9.93
2023-01-17T00:57:53.272Z,9.93
2023-01-17T01:03:36.281Z,9.85
2023-01-17T01:09:19.236Z,9.8
2023-01-17T01:15:02.156Z,9.75
2023-01-17T01:20:45.058Z,9.74
2023-01-17T01:26:27.861Z,9.68
2023-01-17T01:32:10.701Z,9.62
2023-01-17T01:37:53.446Z,9.56
2023-01-17T01:43:44.217Z,9.54
2023-01-17T01:49:27.223Z,9.5
2023-01-17T01:55:11.486Z,9.47
2023-01-17T02:00:54.497Z,9.48
2023-01-17T02:06:41.430Z,9.43
2023-01-17T02:12:24.924Z,9.42
2023-01-17T02:18:12.284Z,9.36
2023-01-17T02:24:21.750Z,9.37
2023-01-17T02:30:18.511Z,9.41
2023-01-17T02:36:05.744Z,9.4
2023-01-17T02:41:51.755Z,9.38
2023-01-17T02:47:34.777Z,9.36
2023-01-17T02:53:25.204Z,9.36
2023-01-17T02:59:13.218Z,9.38
2023-01-17T03:05:00.908Z,9.37
2023-01-17T03:10:44.462Z,9.37
2023-01-17T03:16:28.865Z,9.34
2023-01-17T03:22:11.755Z,9.36
2023-01-17T03:27:54.632Z,9.33
2023-01-17T03:33:37.531Z,9.35
2023-01-17T03:39:20.494Z,9.28
2023-01-17T03:45:03.654Z,9.23
2023-01-17T03:50:49.732Z,9.18
2023-01-17T03:56:32.885Z,9.15
2023-01-17T04:02:15.990Z,9.13
2023-01-17T04:07:59.672Z,9.07
2023-01-17T04:13:42.729Z,9.09
2023-01-17T04:19:25.431Z,9.01
2023-01-17T04:25:09.077Z,8.99
2023-01-17T04:30:51.937Z,8.94
2023-01-17T04:36:35.140Z,8.96
2023-01-17T04:42:18.119Z,8.9
2023-01-17T04:48:06.330Z,8.83
2023-01-17T04:53:49.293Z,8.83
2023-01-17T04:59:32.120Z,8.77
2023-01-17T05:05:15.304Z,8.74
2023-01-17T05:10:58.135Z,8.7
2023-01-17T05:16:41.004Z,8.66
2023-01-17T05:22:23.925Z,8.63
2023-01-17T05:28:06.503Z,8.62
2023-01-17T05:33:49.438Z,8.55
2023-01-17T05:39:32.363Z,8.52
2023-01-17T05:45:15.934Z,8.5
2023-01-17T05:50:58.636Z,8.48
2023-01-17T05:56:41.765Z,8.47
2023-01-17T06:02:24.911Z,8.45
2023-01-17T06:08:08.270Z,8.4
2023-01-17T06:13:51.639Z,8.34
2023-01-17T06:19:34.521Z,8.32
2023-01-17T06:25:17.369Z,8.3
2023-01-17T06:31:04.932Z,8.26
2023-01-17T06:36:47.920Z,8.26
2023-01-17T06:42:30.740Z,8.22
2023-01-17T06:48:14.114Z,8.19
2023-01-17T06:53:56.932Z,8.19
2023-01-17T06:59:39.921Z,8.14
2023-01-17T07:05:23.116Z,8.12
2023-01-17T07:11:07.197Z,8.09
2023-01-17T07:16:50.173Z,8.07
2023-01-17T07:22:33.319Z,8.08
2023-01-17T07:28:16.282Z,8.09
2023-01-17T07:33:59.140Z,8.09
2023-01-17T07:39:42.170Z,8.11
2023-01-17T07:45:25.059Z,8.12
2023-01-17T07:51:08.511Z,8.12
2023-01-17T07:56:51.424Z,8.12
2023-01-17T08:02:34.535Z,8.13
2023-01-17T08:08:17.864Z,8.15
2023-01-17T08:14:00.719Z,8.18
2023-01-17T08:19:43.819Z,8.19
2023-01-17T08:25:26.785Z,8.21
2023-01-17T08:31:10.279Z,8.22
2023-01-17T08:36:55.619Z,8.26
2023-01-17T08:42:38.445Z,8.3
2023-01-17T08:48:21.590Z,8.33
2023-01-17T08:54:04.656Z,8.39
2023-01-17T08:59:47.798Z,8.42
2023-01-17T09:05:30.764Z,8.46
2023-01-17T09:11:15.434Z,8.51
2023-01-17T09:16:58.868Z,8.56
2023-01-17T09:22:41.930Z,8.62
2023-01-17T09:28:27.651Z,8.66
2023-01-17T09:34:10.610Z,8.7
2023-01-17T09:39:53.553Z,8.74
2023-01-17T09:45:36.510Z,8.77
2023-01-17T09:51:21.340Z,8.85
2023-01-17T09:57:08.621Z,8.9
2023-01-17T10:02:59.565Z,8.95
2023-01-17T10:08:53.113Z,9.01
2023-01-17T10:14:47.701Z,9.09
2023-01-17T10:20:37.250Z,9.15
2023-01-17T10:26:21.986Z,9.21
2023-01-17T10:32:05.489Z,9.25
2023-01-17T10:37:48.822Z,9.28
2023-01-17T10:43:36.277Z,9.31
2023-01-17T10:49:20.932Z,9.36
2023-01-17T10:55:08.245Z,9.39
2023-01-17T11:00:54.939Z,9.45
2023-01-17T11:06:46.414Z,9.5
2023-01-17T11:12:40.859Z,9.56
2023-01-17T11:18:24.722Z,9.57
2023-01-17T11:24:16.060Z,9.65
2023-01-17T11:30:10.764Z,9.7
2023-01-17T11:35:53.982Z,9.9
2023-01-17T11:41:38.072Z,9.94
2023-01-17T11:47:20.906Z,10
2023-01-17T11:53:17.153Z,10.07
2023-01-17T11:59:10.846Z,10.18
2023-01-17T12:05:00.452Z,10.29
2023-01-17T12:10:49.217Z,10.36
2023-01-17T12:16:39.146Z,10.43
2023-01-17T12:22:28.504Z,10.51
2023-01-17T12:28:25.272Z,10.58
2023-01-17T12:34:14.189Z,10.66
2023-01-17T12:40:01.432Z,10.7
2023-01-17T12:45:45.878Z,10.77
2023-01-17T12:51:30.795Z,10.87
2023-01-17T12:57:15.765Z,10.95
2023-01-17T13:03:02.130Z,11.01
2023-01-17T13:08:48.370Z,11.1
2023-01-17T13:14:31.374Z,11.17
2023-01-17T13:20:19.645Z,11.19
2023-01-17T13:26:03.157Z,11.27
2023-01-17T13:31:51.416Z,11.31
2023-01-17T13:37:42.164Z,11.34
2023-01-17T13:43:26.613Z,11.39
2023-01-17T13:49:26.025Z,11.39
2023-01-17T13:55:14.049Z,11.44
2023-01-17T14:00:57.471Z,11.47
2023-01-17T14:06:42.767Z,11.47
2023-01-17T14:12:30.878Z,11.46
2023-01-17T14:18:25.020Z,11.49
2023-01-17T14:24:14.934Z,11.53
2023-01-17T14:29:59.238Z,11.56
2023-01-17T14:35:49.385Z,11.57
2023-01-17T14:41:32.549Z,11.57
2023-01-17T14:47:16.448Z,11.56
2023-01-17T14:53:22.418Z,11.59
2023-01-17T14:59:12.643Z,11.63
2023-01-17T15:04:58.055Z,11.65
2023-01-17T15:10:45.147Z,11.62
2023-01-17T15:16:29.203Z,11.57
2023-01-17T15:22:12.474Z,11.46
2023-01-17T15:27:55.614Z,11.35
2023-01-17T15:33:39.969Z,11.22
2023-01-17T15:39:24.105Z,11.09
2023-01-17T15:45:11.829Z,10.99
2023-01-17T15:51:01.074Z,10.9
2023-01-17T15:56:44.071Z,10.82
2023-01-17T16:02:42.865Z,10.7
2023-01-17T16:08:38.539Z,10.62
2023-01-17T16:14:22.255Z,10.53
2023-01-17T16:20:09.307Z,10.4
2023-01-17T16:25:52.326Z,10.3
2023-01-17T16:31:35.222Z,10.16
2023-01-17T16:37:18.073Z,10.04
2023-01-17T16:43:03.244Z,9.97
2023-01-17T16:48:46.258Z,9.88
2023-01-17T16:54:29.399Z,9.77
2023-01-17T17:00:13.051Z,9.71
2023-01-17T17:05:59.624Z,9.64
2023-01-17T17:11:42.382Z,9.59
2023-01-17T17:17:25.265Z,9.55
2023-01-17T17:23:08.170Z,9.55
2023-01-17T17:28:54.476Z,9.49
2023-01-17T17:34:37.471Z,9.48
2023-01-17T17:40:20.623Z,9.38
2023-01-17T17:46:03.678Z,9.26
2023-01-17T17:51:46.977Z,9.2
2023-01-17T17:57:30.098Z,9.15
2023-01-17T18:03:13.201Z,9.1
2023-01-17T18:08:57.224Z,9.05
2023-01-17T18:14:40.187Z,8.98
2023-01-17T18:20:23.382Z,8.93
2023-01-17T18:26:06.482Z,8.89
2023-01-17T18:31:56.473Z,8.83
2023-01-17T18:37:39.603Z,8.81
2023-01-17T18:43:25.643Z,8.79
2023-01-17T18:49:10.042Z,8.76
2023-01-17T18:54:53.029Z,8.73
2023-01-17T19:00:35.876Z,8.68
2023-01-17T19:06:20.293Z,8.64
2023-01-17T19:12:03.118Z,8.62
2023-01-17T19:17:45.996Z,8.58
2023-01-17T19:23:28.889Z,8.57
2023-01-17T19:29:11.877Z,8.54
2023-01-17T19:34:54.920Z,8.5
2023-01-17T19:40:37.806Z,8.49
2023-01-17T19:46:20.929Z,8.47
2023-01-17T19:52:03.813Z,8.49
2023-01-17T19:57:46.914Z,8.47
2023-01-17T20:03:29.805Z,8.44
2023-01-17T20:09:13.885Z,8.42
2023-01-17T20:14:57.375Z,8.4
2023-01-17T20:20:55.908Z,8.37
2023-01-17T20:26:39.273Z,8.39
2023-01-17T20:32:22.408Z,8.33
2023-01-17T20:38:05.661Z,8.3
2023-01-17T20:43:49.640Z,8.25
2023-01-17T20:49:32.689Z,8.21
2023-01-17T20:55:15.945Z,8.18
2023-01-17T21:00:59.002Z,8.17
2023-01-17T21:06:43.329Z,8.15
2023-01-17T21:12:26.662Z,8.15
2023-01-17T21:18:09.644Z,8.1
2023-01-17T21:23:53.489Z,8.11
2023-01-17T21:29:36.338Z,8.07
2023-01-17T21:35:19.652Z,8.04
2023-01-17T21:41:02.639Z,8.03
2023-01-17T21:46:45.761Z,8.05
2023-01-17T21:52:29.243Z,8.11
2023-01-17T21:58:16.347Z,8.06
2023-01-17T22:03:59.877Z,8.06
2023-01-17T22:09:42.893Z,8.06
2023-01-17T22:15:25.608Z,8.03
2023-01-17T22:21:10.920Z,8.02
2023-01-17T22:26:53.993Z,8.03
2023-01-17T22:32:37.067Z,8.02
2023-01-17T22:38:20.165Z,8.04
2023-01-17T22:44:03.450Z,8.06
2023-01-17T22:49:47.601Z,8.03
2023-01-17T22:55:30.421Z,8.02
2023-01-17T23:01:15.210Z,8.02
2023-01-17T23:06:58.410Z,8
2023-01-17T23:12:41.237Z,7.98
2023-01-17T23:18:24.146Z,8.09
2023-01-17T23:24:07.256Z,7.98
2023-01-17T23:29:51.242Z,7.97
2023-01-17T23:35:37.972Z,7.88
2023-01-17T23:41:24.742Z,7.86
2023-01-17T23:47:07.726Z,7.82
2023-01-17T23:52:50.486Z,7.79
2023-01-17T23:58:33.279Z,7.79
